sensor_id;sensor_type;location;lat;lon;timestamp;pressure;altitude;pressure_sealevel;temperature;humidity
31062;BME280;17724;53.546;9.974;2022-10-30T00:01:50;101699.63;;;15.82;100.00
31062;BME280;17724;53.546;9.974;2022-10-30T00:05:50;101693.19;;;15.66;100.00
31062;BME280;17724;53.546;9.974;2022-10-30T00:09:51;101691.53;;;15.65;100.00
31062;BME280;17724;53.546;9.974;2022-10-30T00:13:51;101682.16;;;15.76;100.00
31062;BME280;17724;53.546;9.974;2022-10-30T00:17:52;101684.63;;;15.72;100.00
31062;BME280;17724;53.546;9.974;2022-10-30T00:21:52;101691.03;;;15.83;100.00
31062;BME280;17724;53.546;9.974;2022-10-30T00:25:53;101678.84;;;15.84;100.00
31062;BME280;17724;53.546;9.974;2022-10-30T00:29:53;101683.00;;;15.87;100.00
31062;BME280;17724;53.546;9.974;2022-10-30T00:33:54;101685.75;;;15.82;100.00
31062;BME280;17724;53.546;9.974;2022-10-30T00:37:54;101686.06;;;15.95;100.00
31062;BME280;17724;53.546;9.974;2022-10-30T00:41:54;101684.69;;;15.93;100.00
31062;BME280;17724;53.546;9.974;2022-10-30T00:45:57;101688.88;;;16.00;100.00
31062;BME280;17724;53.546;9.974;2022-10-30T00:50:13;101680.84;;;16.04;100.00
31062;BME280;17724;53.546;9.974;2022-10-30T00:54:16;101666.41;;;15.97;100.00
31062;BME280;17724;53.546;9.974;2022-10-30T00:58:20;101669.41;;;15.85;100.00
31062;BME280;17724;53.546;9.974;2022-10-30T01:02:23;101666.91;;;15.84;100.00
31062;BME280;17724;53.546;9.974;2022-10-30T01:06:24;101656.06;;;15.72;100.00
31062;BME280;17724;53.546;9.974;2022-10-30T01:10:25;101649.06;;;15.64;100.00
31062;BME280;17724;53.546;9.974;2022-10-30T01:14:25;101642.09;;;15.57;100.00
31062;BME280;17724;53.546;9.974;2022-10-30T01:27:00;101660.22;;;15.74;100.00
31062;BME280;17724;53.546;9.974;2022-10-30T01:35:27;101649.41;;;15.68;100.00
31062;BME280;17724;53.546;9.974;2022-10-30T01:39:36;101660.78;;;15.76;100.00
31062;BME280;17724;53.546;9.974;2022-10-30T01:43:38;101646.34;;;15.80;100.00
31062;BME280;17724;53.546;9.974;2022-10-30T01:47:56;101645.53;;;15.74;100.00
31062;BME280;17724;53.546;9.974;2022-10-30T01:52:14;101643.03;;;15.77;100.00
31062;BME280;17724;53.546;9.974;2022-10-30T01:56:36;101632.44;;;15.64;100.00
31062;BME280;17724;53.546;9.974;2022-10-30T02:00:39;101621.09;;;15.66;100.00
31062;BME280;17724;53.546;9.974;2022-10-30T02:04:41;101631.28;;;15.55;100.00
31062;BME280;17724;53.546;9.974;2022-10-30T02:08:42;101626.53;;;15.50;100.00
31062;BME280;17724;53.546;9.974;2022-10-30T02:12:42;101620.25;;;15.65;100.00
31062;BME280;17724;53.546;9.974;2022-10-30T02:16:45;101629.13;;;15.67;100.00
31062;BME280;17724;53.546;9.974;2022-10-30T02:20:47;101621.94;;;15.71;100.00
31062;BME280;17724;53.546;9.974;2022-10-30T02:24:48;101621.88;;;15.61;100.00
31062;BME280;17724;53.546;9.974;2022-10-30T02:28:48;101616.03;;;15.58;100.00
31062;BME280;17724;53.546;9.974;2022-10-30T02:32:48;101622.41;;;15.53;100.00
31062;BME280;17724;53.546;9.974;2022-10-30T02:36:49;101625.75;;;15.60;100.00
31062;BME280;17724;53.546;9.974;2022-10-30T02:40:49;101616.28;;;15.51;100.00
31062;BME280;17724;53.546;9.974;2022-10-30T02:44:49;101628.50;;;15.50;100.00
31062;BME280;17724;53.546;9.974;2022-10-30T02:48:50;101636.91;;;15.70;100.00
31062;BME280;17724;53.546;9.974;2022-10-30T02:52:50;101632.47;;;15.74;100.00
31062;BME280;17724;53.546;9.974;2022-10-30T02:56:50;101637.41;;;15.62;100.00
31062;BME280;17724;53.546;9.974;2022-10-30T03:00:51;101639.28;;;15.51;100.00
31062;BME280;17724;53.546;9.974;2022-10-30T03:04:51;101653.53;;;15.70;100.00
31062;BME280;17724;53.546;9.974;2022-10-30T03:08:52;101644.09;;;15.66;100.00
31062;BME280;17724;53.546;9.974;2022-10-30T03:12:52;101638.75;;;15.49;100.00
31062;BME280;17724;53.546;9.974;2022-10-30T03:16:52;101643.66;;;15.32;100.00
31062;BME280;17724;53.546;9.974;2022-10-30T03:20:57;101645.88;;;15.35;100.00
31062;BME280;17724;53.546;9.974;2022-10-30T03:24:58;101657.53;;;15.37;100.00
31062;BME280;17724;53.546;9.974;2022-10-30T03:28:58;101653.31;;;15.24;100.00
31062;BME280;17724;53.546;9.974;2022-10-30T03:32:58;101657.38;;;15.07;100.00
31062;BME280;17724;53.546;9.974;2022-10-30T03:36:59;101652.84;;;14.95;100.00
31062;BME280;17724;53.546;9.974;2022-10-30T03:40:59;101649.66;;;15.14;100.00
31062;BME280;17724;53.546;9.974;2022-10-30T03:45:00;101653.84;;;15.21;100.00
31062;BME280;17724;53.546;9.974;2022-10-30T03:49:00;101641.53;;;14.97;100.00
31062;BME280;17724;53.546;9.974;2022-10-30T03:53:00;101655.69;;;15.00;100.00
31062;BME280;17724;53.546;9.974;2022-10-30T03:57:02;101660.16;;;15.12;100.00
31062;BME280;17724;53.546;9.974;2022-10-30T04:01:05;101653.84;;;15.16;100.00
31062;BME280;17724;53.546;9.974;2022-10-30T04:05:06;101656.25;;;15.08;100.00
31062;BME280;17724;53.546;9.974;2022-10-30T04:09:06;101656.66;;;15.26;100.00
31062;BME280;17724;53.546;9.974;2022-10-30T04:13:07;101661.78;;;15.08;100.00
31062;BME280;17724;53.546;9.974;2022-10-30T04:17:08;101666.63;;;15.27;100.00
31062;BME280;17724;53.546;9.974;2022-10-30T04:21:09;101663.53;;;15.24;100.00
31062;BME280;17724;53.546;9.974;2022-10-30T04:25:10;101659.09;;;15.18;100.00
31062;BME280;17724;53.546;9.974;2022-10-30T04:29:10;101658.59;;;15.31;100.00
31062;BME280;17724;53.546;9.974;2022-10-30T04:33:12;101654.47;;;15.28;100.00
31062;BME280;17724;53.546;9.974;2022-10-30T04:37:12;101652.53;;;15.39;100.00
31062;BME280;17724;53.546;9.974;2022-10-30T04:41:12;101634.28;;;15.43;100.00
31062;BME280;17724;53.546;9.974;2022-10-30T04:45:13;101647.31;;;15.43;100.00
31062;BME280;17724;53.546;9.974;2022-10-30T04:49:13;101640.94;;;15.42;100.00
31062;BME280;17724;53.546;9.974;2022-10-30T04:53:16;101639.84;;;15.48;100.00
31062;BME280;17724;53.546;9.974;2022-10-30T04:57:16;101644.06;;;15.56;100.00
31062;BME280;17724;53.546;9.974;2022-10-30T05:01:16;101645.09;;;15.45;100.00
31062;BME280;17724;53.546;9.974;2022-10-30T05:05:17;101647.00;;;15.39;100.00
31062;BME280;17724;53.546;9.974;2022-10-30T05:09:17;101644.56;;;15.48;100.00
31062;BME280;17724;53.546;9.974;2022-10-30T05:13:17;101646.47;;;15.47;100.00
31062;BME280;17724;53.546;9.974;2022-10-30T05:17:18;101640.34;;;15.35;100.00
31062;BME280;17724;53.546;9.974;2022-10-30T05:21:18;101644.50;;;15.38;100.00
31062;BME280;17724;53.546;9.974;2022-10-30T05:25:19;101654.50;;;15.44;100.00
31062;BME280;17724;53.546;9.974;2022-10-30T05:29:19;101650.88;;;15.38;100.00
31062;BME280;17724;53.546;9.974;2022-10-30T05:33:19;101651.41;;;15.30;100.00
31062;BME280;17724;53.546;9.974;2022-10-30T05:37:20;101644.50;;;15.33;100.00
31062;BME280;17724;53.546;9.974;2022-10-30T05:41:20;101658.38;;;15.38;100.00
31062;BME280;17724;53.546;9.974;2022-10-30T05:45:20;101655.59;;;15.38;100.00
31062;BME280;17724;53.546;9.974;2022-10-30T05:49:21;101666.09;;;15.31;100.00
31062;BME280;17724;53.546;9.974;2022-10-30T05:53:22;101660.28;;;15.32;100.00
31062;BME280;17724;53.546;9.974;2022-10-30T05:57:22;101656.94;;;15.25;100.00
31062;BME280;17724;53.546;9.974;2022-10-30T06:01:22;101658.06;;;15.29;100.00
31062;BME280;17724;53.546;9.974;2022-10-30T06:05:23;101675.56;;;15.40;100.00
31062;BME280;17724;53.546;9.974;2022-10-30T06:09:23;101675.50;;;15.30;100.00
31062;BME280;17724;53.546;9.974;2022-10-30T06:13:23;101675.78;;;15.28;100.00
31062;BME280;17724;53.546;9.974;2022-10-30T06:17:24;101682.16;;;15.28;100.00
31062;BME280;17724;53.546;9.974;2022-10-30T06:21:24;101683.81;;;15.30;100.00
31062;BME280;17724;53.546;9.974;2022-10-30T06:25:25;101685.91;;;15.07;100.00
31062;BME280;17724;53.546;9.974;2022-10-30T06:29:26;101696.25;;;15.22;100.00
31062;BME280;17724;53.546;9.974;2022-10-30T06:33:26;101694.63;;;15.31;100.00
31062;BME280;17724;53.546;9.974;2022-10-30T06:37:26;101691.63;;;15.38;100.00
31062;BME280;17724;53.546;9.974;2022-10-30T06:41:28;101694.41;;;15.38;100.00
31062;BME280;17724;53.546;9.974;2022-10-30T06:45:28;101691.56;;;15.27;100.00
31062;BME280;17724;53.546;9.974;2022-10-30T06:49:28;101694.38;;;15.33;100.00
31062;BME280;17724;53.546;9.974;2022-10-30T06:53:29;101706.59;;;15.37;100.00
31062;BME280;17724;53.546;9.974;2022-10-30T06:57:29;101703.09;;;15.09;100.00
31062;BME280;17724;53.546;9.974;2022-10-30T07:01:29;101702.50;;;15.02;100.00
31062;BME280;17724;53.546;9.974;2022-10-30T07:05:30;101708.13;;;15.12;100.00
31062;BME280;17724;53.546;9.974;2022-10-30T07:09:30;101697.09;;;15.22;100.00
31062;BME280;17724;53.546;9.974;2022-10-30T07:13:30;101706.09;;;15.45;100.00
31062;BME280;17724;53.546;9.974;2022-10-30T07:17:31;101714.66;;;15.43;100.00
31062;BME280;17724;53.546;9.974;2022-10-30T07:21:31;101710.53;;;15.46;100.00
31062;BME280;17724;53.546;9.974;2022-10-30T07:25:32;101717.44;;;15.43;100.00
31062;BME280;17724;53.546;9.974;2022-10-30T07:29:32;101719.38;;;15.43;100.00
31062;BME280;17724;53.546;9.974;2022-10-30T07:33:32;101727.97;;;15.41;100.00
31062;BME280;17724;53.546;9.974;2022-10-30T07:37:33;101727.69;;;15.43;100.00
31062;BME280;17724;53.546;9.974;2022-10-30T07:41:33;101725.50;;;15.45;100.00
31062;BME280;17724;53.546;9.974;2022-10-30T07:45:34;101735.47;;;15.46;100.00
31062;BME280;17724;53.546;9.974;2022-10-30T07:49:34;101738.56;;;15.49;100.00
31062;BME280;17724;53.546;9.974;2022-10-30T07:53:34;101735.78;;;15.55;100.00
31062;BME280;17724;53.546;9.974;2022-10-30T07:57:36;101736.75;;;15.75;99.49
31062;BME280;17724;53.546;9.974;2022-10-30T08:01:36;101748.19;;;15.84;98.94
31062;BME280;17724;53.546;9.974;2022-10-30T08:05:37;101749.31;;;15.88;98.60
31062;BME280;17724;53.546;9.974;2022-10-30T08:09:37;101745.44;;;15.89;98.58
31062;BME280;17724;53.546;9.974;2022-10-30T08:13:40;101743.25;;;15.96;98.81
31062;BME280;17724;53.546;9.974;2022-10-30T08:17:45;101752.41;;;16.02;98.95
31062;BME280;17724;53.546;9.974;2022-10-30T08:21:46;101750.00;;;16.21;98.25
31062;BME280;17724;53.546;9.974;2022-10-30T08:25:46;101748.03;;;16.21;98.47
31062;BME280;17724;53.546;9.974;2022-10-30T08:29:46;101741.69;;;16.36;97.96
31062;BME280;17724;53.546;9.974;2022-10-30T08:33:47;101740.59;;;16.32;97.78
31062;BME280;17724;53.546;9.974;2022-10-30T08:37:47;101749.75;;;16.43;97.17
31062;BME280;17724;53.546;9.974;2022-10-30T08:41:48;101751.69;;;16.37;97.12
31062;BME280;17724;53.546;9.974;2022-10-30T08:45:48;101753.09;;;16.50;96.91
31062;BME280;17724;53.546;9.974;2022-10-30T08:49:51;101760.88;;;16.53;96.53
31062;BME280;17724;53.546;9.974;2022-10-30T08:53:54;101757.28;;;16.63;96.27
31062;BME280;17724;53.546;9.974;2022-10-30T08:57:54;101757.03;;;16.69;95.60
31062;BME280;17724;53.546;9.974;2022-10-30T09:01:55;101757.06;;;16.80;95.29
31062;BME280;17724;53.546;9.974;2022-10-30T09:05:57;101769.00;;;16.80;94.96
31062;BME280;17724;53.546;9.974;2022-10-30T09:09:58;101752.06;;;16.92;94.38
31062;BME280;17724;53.546;9.974;2022-10-30T09:13:59;101750.41;;;16.96;94.18
31062;BME280;17724;53.546;9.974;2022-10-30T09:18:01;101744.81;;;17.06;94.15
31062;BME280;17724;53.546;9.974;2022-10-30T09:22:02;101754.56;;;17.09;93.70
31062;BME280;17724;53.546;9.974;2022-10-30T09:26:02;101752.63;;;17.09;93.94
31062;BME280;17724;53.546;9.974;2022-10-30T09:30:02;101754.28;;;17.20;94.01
31062;BME280;17724;53.546;9.974;2022-10-30T09:34:03;101753.44;;;17.20;93.55
31062;BME280;17724;53.546;9.974;2022-10-30T09:38:03;101756.75;;;17.27;93.38
31062;BME280;17724;53.546;9.974;2022-10-30T09:50:49;101764.22;;;17.52;92.54
31062;BME280;17724;53.546;9.974;2022-10-30T09:59:28;101753.06;;;17.78;91.95
31062;BME280;17724;53.546;9.974;2022-10-30T10:08:14;101751.84;;;17.99;91.24
31062;BME280;17724;53.546;9.974;2022-10-30T10:12:39;101742.13;;;17.96;90.60
31062;BME280;17724;53.546;9.974;2022-10-30T10:16:42;101741.22;;;18.11;90.46
31062;BME280;17724;53.546;9.974;2022-10-30T10:20:47;101732.03;;;18.11;90.25
31062;BME280;17724;53.546;9.974;2022-10-30T10:24:49;101749.22;;;18.23;90.04
31062;BME280;17724;53.546;9.974;2022-10-30T10:29:02;101735.56;;;18.27;90.01
31062;BME280;17724;53.546;9.974;2022-10-30T10:33:32;101735.81;;;18.35;89.58
31062;BME280;17724;53.546;9.974;2022-10-30T10:50:31;101723.34;;;18.62;88.98
31062;BME280;17724;53.546;9.974;2022-10-30T10:54:53;101723.34;;;18.62;89.02
31062;BME280;17724;53.546;9.974;2022-10-30T10:58:58;101724.97;;;18.68;88.92
31062;BME280;17724;53.546;9.974;2022-10-30T11:03:12;101716.31;;;18.75;88.80
31062;BME280;17724;53.546;9.974;2022-10-30T11:07:27;101714.03;;;18.82;88.50
31062;BME280;17724;53.546;9.974;2022-10-30T11:11:29;101722.06;;;18.88;88.45
31062;BME280;17724;53.546;9.974;2022-10-30T11:15:39;101720.63;;;18.91;88.13
31062;BME280;17724;53.546;9.974;2022-10-30T11:19:41;101726.69;;;18.98;87.90
31062;BME280;17724;53.546;9.974;2022-10-30T11:23:44;101730.03;;;19.00;88.13
31062;BME280;17724;53.546;9.974;2022-10-30T11:27:47;101722.44;;;19.06;87.81
31062;BME280;17724;53.546;9.974;2022-10-30T11:31:58;101726.13;;;19.01;88.13
31062;BME280;17724;53.546;9.974;2022-10-30T11:36:07;101716.09;;;19.00;88.22
31062;BME280;17724;53.546;9.974;2022-10-30T11:44:11;101720.69;;;19.15;88.03
31062;BME280;17724;53.546;9.974;2022-10-30T11:48:29;101716.72;;;19.21;88.12
31062;BME280;17724;53.546;9.974;2022-10-30T11:52:37;101720.91;;;19.24;88.22
31062;BME280;17724;53.546;9.974;2022-10-30T11:56:45;101718.09;;;19.24;88.20
31062;BME280;17724;53.546;9.974;2022-10-30T12:00:58;101702.44;;;19.28;87.94
31062;BME280;17724;53.546;9.974;2022-10-30T12:05:01;101710.50;;;19.29;87.95
31062;BME280;17724;53.546;9.974;2022-10-30T12:09:21;101708.31;;;19.26;88.17
31062;BME280;17724;53.546;9.974;2022-10-30T12:13:23;101699.28;;;19.34;88.06
31062;BME280;17724;53.546;9.974;2022-10-30T12:17:24;101708.97;;;19.42;87.59
31062;BME280;17724;53.546;9.974;2022-10-30T12:21:26;101708.88;;;19.52;87.45
31062;BME280;17724;53.546;9.974;2022-10-30T12:25:30;101706.97;;;19.48;87.63
31062;BME280;17724;53.546;9.974;2022-10-30T12:34:09;101725.31;;;19.54;87.43
31062;BME280;17724;53.546;9.974;2022-10-30T12:38:27;101707.22;;;19.51;87.08
31062;BME280;17724;53.546;9.974;2022-10-30T12:42:30;101715.22;;;19.58;86.75
31062;BME280;17724;53.546;9.974;2022-10-30T13:04:06;101709.81;;;19.66;87.08
31062;BME280;17724;53.546;9.974;2022-10-30T13:08:29;101686.16;;;19.59;87.04
31062;BME280;17724;53.546;9.974;2022-10-30T13:12:35;101708.06;;;19.76;86.90
31062;BME280;17724;53.546;9.974;2022-10-30T13:16:37;101701.84;;;19.79;86.91
31062;BME280;17724;53.546;9.974;2022-10-30T13:20:37;101709.78;;;19.72;87.09
31062;BME280;17724;53.546;9.974;2022-10-30T13:25:03;101696.66;;;19.72;86.97
31062;BME280;17724;53.546;9.974;2022-10-30T13:29:18;101710.06;;;19.70;87.19
31062;BME280;17724;53.546;9.974;2022-10-30T13:37:52;101715.28;;;19.77;87.39
31062;BME280;17724;53.546;9.974;2022-10-30T13:46:43;101703.78;;;19.83;87.38
31062;BME280;17724;53.546;9.974;2022-10-30T14:07:54;101682.50;;;19.87;87.91
31062;BME280;17724;53.546;9.974;2022-10-30T14:16:42;101689.16;;;19.91;88.94
31062;BME280;17724;53.546;9.974;2022-10-30T14:20:50;101694.34;;;19.98;88.96
31062;BME280;17724;53.546;9.974;2022-10-30T14:24:51;101700.63;;;20.09;92.00
31062;BME280;17724;53.546;9.974;2022-10-30T14:28:53;101701.69;;;20.13;89.73
31062;BME280;17724;53.546;9.974;2022-10-30T14:32:54;101710.22;;;20.22;89.10
31062;BME280;17724;53.546;9.974;2022-10-30T14:36:54;101700.78;;;20.17;89.03
31062;BME280;17724;53.546;9.974;2022-10-30T14:41:11;101703.50;;;20.23;87.89
31062;BME280;17724;53.546;9.974;2022-10-30T14:54:30;101701.16;;;20.30;88.41
31062;BME280;17724;53.546;9.974;2022-10-30T14:58:36;101692.50;;;20.31;88.05
31062;BME280;17724;53.546;9.974;2022-10-30T15:07:28;101684.41;;;20.11;89.23
31062;BME280;17724;53.546;9.974;2022-10-30T15:16:01;101681.44;;;20.02;90.22
31062;BME280;17724;53.546;9.974;2022-10-30T15:20:24;101680.69;;;19.97;91.04
31062;BME280;17724;53.546;9.974;2022-10-30T15:24:26;101681.84;;;19.96;91.56
31062;BME280;17724;53.546;9.974;2022-10-30T15:28:33;101677.66;;;19.93;91.40
31062;BME280;17724;53.546;9.974;2022-10-30T15:32:39;101673.00;;;19.88;92.12
31062;BME280;17724;53.546;9.974;2022-10-30T15:36:40;101672.69;;;19.90;92.07
31062;BME280;17724;53.546;9.974;2022-10-30T15:40:42;101684.47;;;19.87;91.57
31062;BME280;17724;53.546;9.974;2022-10-30T15:44:44;101682.56;;;19.82;91.74
31062;BME280;17724;53.546;9.974;2022-10-30T15:48:46;101675.91;;;19.78;93.49
31062;BME280;17724;53.546;9.974;2022-10-30T15:52:47;101670.06;;;19.80;91.62
31062;BME280;17724;53.546;9.974;2022-10-30T15:56:49;101673.19;;;19.73;90.80
31062;BME280;17724;53.546;9.974;2022-10-30T16:00:58;101686.44;;;19.62;91.37
31062;BME280;17724;53.546;9.974;2022-10-30T16:04:59;101684.50;;;19.58;91.91
31062;BME280;17724;53.546;9.974;2022-10-30T16:09:04;101687.06;;;19.54;92.17
31062;BME280;17724;53.546;9.974;2022-10-30T16:13:17;101692.13;;;19.52;94.37
31062;BME280;17724;53.546;9.974;2022-10-30T16:17:18;101690.16;;;19.53;92.96
31062;BME280;17724;53.546;9.974;2022-10-30T16:21:21;101691.13;;;19.43;93.56
31062;BME280;17724;53.546;9.974;2022-10-30T16:25:23;101682.88;;;19.33;93.29
31062;BME280;17724;53.546;9.974;2022-10-30T16:29:25;101672.88;;;19.27;93.42
31062;BME280;17724;53.546;9.974;2022-10-30T16:33:28;101673.72;;;19.27;94.02
31062;BME280;17724;53.546;9.974;2022-10-30T16:37:34;101687.31;;;19.34;93.35
31062;BME280;17724;53.546;9.974;2022-10-30T16:41:35;101689.59;;;19.27;93.95
31062;BME280;17724;53.546;9.974;2022-10-30T16:45:44;101688.50;;;19.28;94.94
31062;BME280;17724;53.546;9.974;2022-10-30T16:49:54;101696.63;;;19.24;94.96
31062;BME280;17724;53.546;9.974;2022-10-30T16:53:56;101698.91;;;19.17;95.48
31062;BME280;17724;53.546;9.974;2022-10-30T16:57:58;101699.22;;;19.15;96.36
31062;BME280;17724;53.546;9.974;2022-10-30T17:02:00;101695.56;;;19.20;96.49
31062;BME280;17724;53.546;9.974;2022-10-30T17:06:27;101703.94;;;19.15;95.83
31062;BME280;17724;53.546;9.974;2022-10-30T17:10:32;101709.88;;;19.08;96.66
31062;BME280;17724;53.546;9.974;2022-10-30T17:15:12;101709.09;;;19.03;95.48
31062;BME280;17724;53.546;9.974;2022-10-30T17:23:29;101718.19;;;18.84;95.37
31062;BME280;17724;53.546;9.974;2022-10-30T17:27:33;101717.69;;;18.77;95.83
31062;BME280;17724;53.546;9.974;2022-10-30T17:35:36;101718.00;;;18.70;96.34
31062;BME280;17724;53.546;9.974;2022-10-30T17:39:37;101717.19;;;18.65;97.42
31062;BME280;17724;53.546;9.974;2022-10-30T17:43:48;101720.78;;;18.76;95.74
31062;BME280;17724;53.546;9.974;2022-10-30T17:47:50;101729.44;;;18.69;96.11
31062;BME280;17724;53.546;9.974;2022-10-30T17:51:50;101721.69;;;18.61;97.61
31062;BME280;17724;53.546;9.974;2022-10-30T17:56:04;101744.19;;;18.69;96.23
31062;BME280;17724;53.546;9.974;2022-10-30T18:00:09;101738.72;;;18.54;97.61
31062;BME280;17724;53.546;9.974;2022-10-30T18:04:14;101744.03;;;18.56;96.60
31062;BME280;17724;53.546;9.974;2022-10-30T18:08:15;101739.31;;;18.51;96.76
31062;BME280;17724;53.546;9.974;2022-10-30T18:12:15;101741.56;;;18.49;97.43
31062;BME280;17724;53.546;9.974;2022-10-30T18:16:17;101751.03;;;18.48;98.47
31062;BME280;17724;53.546;9.974;2022-10-30T18:20:18;101738.81;;;18.39;99.12
31062;BME280;17724;53.546;9.974;2022-10-30T18:24:18;101739.44;;;18.31;99.31
31062;BME280;17724;53.546;9.974;2022-10-30T18:28:19;101746.69;;;18.32;98.58
31062;BME280;17724;53.546;9.974;2022-10-30T18:32:19;101748.56;;;18.41;97.70
31062;BME280;17724;53.546;9.974;2022-10-30T18:36:21;101743.25;;;18.45;97.91
31062;BME280;17724;53.546;9.974;2022-10-30T18:40:22;101752.22;;;18.37;98.48
31062;BME280;17724;53.546;9.974;2022-10-30T18:44:23;101745.88;;;18.26;98.63
31062;BME280;17724;53.546;9.974;2022-10-30T18:48:23;101751.97;;;18.33;98.24
31062;BME280;17724;53.546;9.974;2022-10-30T18:52:24;101758.97;;;18.26;98.67
31062;BME280;17724;53.546;9.974;2022-10-30T18:56:26;101751.69;;;18.30;97.54
31062;BME280;17724;53.546;9.974;2022-10-30T19:00:27;101746.75;;;18.16;98.93
31062;BME280;17724;53.546;9.974;2022-10-30T19:04:29;101757.06;;;18.16;100.00
31062;BME280;17724;53.546;9.974;2022-10-30T19:08:32;101748.44;;;18.17;100.00
31062;BME280;17724;53.546;9.974;2022-10-30T19:12:32;101753.13;;;18.22;98.96
31062;BME280;17724;53.546;9.974;2022-10-30T19:16:33;101750.06;;;18.24;97.49
31062;BME280;17724;53.546;9.974;2022-10-30T19:20:34;101738.16;;;18.13;98.36
31062;BME280;17724;53.546;9.974;2022-10-30T19:24:34;101756.25;;;18.15;98.01
31062;BME280;17724;53.546;9.974;2022-10-30T19:28:35;101750.16;;;18.03;98.57
31062;BME280;17724;53.546;9.974;2022-10-30T19:32:37;101756.06;;;17.91;100.00
31062;BME280;17724;53.546;9.974;2022-10-30T19:36:37;101748.31;;;17.78;100.00
31062;BME280;17724;53.546;9.974;2022-10-30T19:40:39;101754.72;;;17.79;100.00
31062;BME280;17724;53.546;9.974;2022-10-30T19:44:39;101750.56;;;17.76;100.00
31062;BME280;17724;53.546;9.974;2022-10-30T19:48:40;101753.88;;;17.78;100.00
31062;BME280;17724;53.546;9.974;2022-10-30T19:52:40;101758.88;;;17.81;100.00
31062;BME280;17724;53.546;9.974;2022-10-30T19:56:41;101757.19;;;17.85;99.73
31062;BME280;17724;53.546;9.974;2022-10-30T20:00:44;101763.06;;;17.63;100.00
31062;BME280;17724;53.546;9.974;2022-10-30T20:04:47;101770.63;;;17.53;100.00
31062;BME280;17724;53.546;9.974;2022-10-30T20:08:48;101767.00;;;17.57;100.00
31062;BME280;17724;53.546;9.974;2022-10-30T20:12:48;101762.84;;;17.49;100.00
31062;BME280;17724;53.546;9.974;2022-10-30T20:16:48;101767.53;;;17.59;100.00
31062;BME280;17724;53.546;9.974;2022-10-30T20:20:51;101761.19;;;17.48;100.00
31062;BME280;17724;53.546;9.974;2022-10-30T20:24:52;101764.53;;;17.35;100.00
31062;BME280;17724;53.546;9.974;2022-10-30T20:28:52;101777.88;;;17.33;100.00
31062;BME280;17724;53.546;9.974;2022-10-30T20:32:53;101763.16;;;17.22;100.00
31062;BME280;17724;53.546;9.974;2022-10-30T20:36:55;101773.16;;;17.34;100.00
31062;BME280;17724;53.546;9.974;2022-10-30T20:41:00;101774.28;;;17.28;100.00
31062;BME280;17724;53.546;9.974;2022-10-30T20:45:01;101782.06;;;17.20;100.00
31062;BME280;17724;53.546;9.974;2022-10-30T20:49:01;101784.56;;;17.07;100.00
31062;BME280;17724;53.546;9.974;2022-10-30T20:53:01;101782.06;;;16.90;100.00
31062;BME280;17724;53.546;9.974;2022-10-30T20:57:02;101794.59;;;17.08;100.00
31062;BME280;17724;53.546;9.974;2022-10-30T21:01:02;101787.34;;;16.91;100.00
31062;BME280;17724;53.546;9.974;2022-10-30T21:05:03;101785.13;;;17.14;100.00
31062;BME280;17724;53.546;9.974;2022-10-30T21:09:04;101792.06;;;17.11;100.00
31062;BME280;17724;53.546;9.974;2022-10-30T21:13:04;101787.91;;;17.14;100.00
31062;BME280;17724;53.546;9.974;2022-10-30T21:17:05;101790.13;;;17.02;100.00
31062;BME280;17724;53.546;9.974;2022-10-30T21:21:07;101798.19;;;16.88;100.00
31062;BME280;17724;53.546;9.974;2022-10-30T21:25:07;101796.50;;;16.77;100.00
31062;BME280;17724;53.546;9.974;2022-10-30T21:29:08;101788.16;;;16.87;100.00
31062;BME280;17724;53.546;9.974;2022-10-30T21:33:08;101785.69;;;16.80;100.00
31062;BME280;17724;53.546;9.974;2022-10-30T21:37:09;101780.31;;;16.53;100.00
31062;BME280;17724;53.546;9.974;2022-10-30T21:41:11;101795.88;;;16.54;100.00
31062;BME280;17724;53.546;9.974;2022-10-30T21:45:12;101802.28;;;16.60;100.00
31062;BME280;17724;53.546;9.974;2022-10-30T21:49:15;101799.78;;;16.53;100.00
31062;BME280;17724;53.546;9.974;2022-10-30T21:53:17;101787.56;;;16.64;100.00
31062;BME280;17724;53.546;9.974;2022-10-30T21:57:17;101790.91;;;16.61;100.00
31062;BME280;17724;53.546;9.974;2022-10-30T22:01:26;101790.59;;;16.58;100.00
31062;BME280;17724;53.546;9.974;2022-10-30T22:05:27;101788.94;;;16.57;100.00
31062;BME280;17724;53.546;9.974;2022-10-30T22:09:27;101789.44;;;16.43;100.00
31062;BME280;17724;53.546;9.974;2022-10-30T22:13:28;101785.28;;;16.36;100.00
31062;BME280;17724;53.546;9.974;2022-10-30T22:17:28;101794.16;;;16.38;100.00
31062;BME280;17724;53.546;9.974;2022-10-30T22:21:29;101809.13;;;16.32;100.00
31062;BME280;17724;53.546;9.974;2022-10-30T22:25:29;101799.13;;;16.20;100.00
31062;BME280;17724;53.546;9.974;2022-10-30T22:29:30;101803.19;;;16.08;100.00
31062;BME280;17724;53.546;9.974;2022-10-30T22:33:31;101809.84;;;16.01;100.00
31062;BME280;17724;53.546;9.974;2022-10-30T22:37:32;101813.19;;;16.04;100.00
31062;BME280;17724;53.546;9.974;2022-10-30T22:41:33;101806.72;;;15.88;100.00
31062;BME280;17724;53.546;9.974;2022-10-30T22:45:33;101816.28;;;16.12;100.00
31062;BME280;17724;53.546;9.974;2022-10-30T22:49:34;101818.72;;;15.98;100.00
31062;BME280;17724;53.546;9.974;2022-10-30T22:53:34;101811.72;;;15.91;100.00
31062;BME280;17724;53.546;9.974;2022-10-30T22:57:36;101818.94;;;15.87;100.00
31062;BME280;17724;53.546;9.974;2022-10-30T23:01:38;101804.97;;;15.71;100.00
31062;BME280;17724;53.546;9.974;2022-10-30T23:05:38;101808.88;;;15.75;100.00
31062;BME280;17724;53.546;9.974;2022-10-30T23:09:39;101815.50;;;15.69;100.00